Detalii statie AGROSAMI SACALAZ [00001988]

Toti senzorii

Date Temperatura solului [C]Precipitatii [mm]Voltaj baterie [mV]Leaf Wetness [Min]HC Air temperature [C]HC Relative humidity [%]Punctul de roua [C]
medieminmaxsumaultimatimpmedieminmaxmediemediemin
2018-06-20 10:00:00 0 7314 27.54 26.1 28.7 0 0 0
2018-06-20 11:00:00 0 7314 29.95 28.52 31.33 0 0 0
2018-06-20 12:00:00 0 7314 32.81 31.31 34.08 0 0 0
2018-06-20 13:00:00 0 7314 34.02 33.13 34.67 0 0 0
2018-06-20 14:00:00 0 7314 34.55 33.81 35.48 0 0 0
2018-06-20 15:00:00 0 7314 35.54 34.61 36.27 0 0 0
2018-06-20 16:00:00 0 7314 35.06 33.71 35.97 0 0 0
2018-06-20 17:00:00 0 7314 34.65 33.91 35.22 1.17 -1.8 0
2018-06-20 18:00:00 0 7314 32.79 32.37 33.14 1.6 0
2018-06-20 19:00:00 0 7088 31.14 29.57 32.83 5.47 0
2018-06-20 20:00:00 0 7010 27.57 26.03 29.4 11.03 0
2018-06-20 21:00:00 0 6962 25.09 24.17 25.77 12.1 0
2018-06-20 22:00:00 0 6922 23.03 22.47 24.08 13.21 0
2018-06-20 23:00:00 0 6932 22.55 22.08 23.16 8.58 0
2018-06-21 00:00:00 0 6864 22.74 22.44 23.11 17.73 0
2018-06-21 01:00:00 0 6884 22.3 22.06 22.48 30.75 3.5 -3.8
2018-06-21 02:00:00 0 6962 21.8 21.27 22.08 0.26 -2.6 0
2018-06-21 03:00:00 0 6972 21.4 21.2 21.52 0 0 0
2018-06-21 04:00:00 0 6972 20.38 19.39 21.09 0 0 0
2018-06-21 05:00:00 0 6972 18.96 18.78 19.25 0 0 0
2018-06-21 06:00:00 0 7000 19.16 18.91 19.38 0 0 0
2018-06-21 07:00:00 0 7060 20.65 19.61 21.99 0 0 0
2018-06-21 08:00:00 0 7176 25.35 22.58 26.97 0 0 0
2018-06-21 09:00:00 0 7236 27.09 26.66 27.76 0 0 0
2018-06-21 10:00:00 0 7314 28.96 27.32 30.02 0 0 0
2018-06-21 11:00:00 0 7314 30.96 29.31 32.75 0 0 0
2018-06-21 12:00:00 0 7314 34.01 32.83 35.56 0 0 0
2018-06-21 13:00:00 0 7314 35.48 33.82 37.13 0 0 0
2018-06-21 14:00:00 0 7314 32.76 31.64 35.23 0 0 0
2018-06-21 15:00:00 0.2 7176 26.72 23.6 31.46 0 0 0
2018-06-21 16:00:00 0.4 7264 23.48 22.89 24.28 0 0 0
2018-06-21 17:00:00 0 7324 24.66 23.88 25.86 0 0 0
2018-06-21 18:00:00 0 7314 26.63 26.02 27.3 0 0 0
2018-06-21 19:00:00 0 7098 25.35 24.5 25.96 2.96 0
2018-06-21 20:00:00 0 7040 23.64 22.94 24.35 0 0 0
2018-06-21 21:00:00 0 7000 22.78 22.55 22.98 0.49 -4.7 0
2018-06-21 22:00:00 0 7000 21.78 21.35 22.59 1.42 0
2018-06-21 23:00:00 0 7010 21.1 20.82 21.33 0 0 0
2018-06-22 00:00:00 0 7010 20.64 20.48 20.82 3.92 0
2018-06-22 01:00:00 0 7010 19.97 19.68 20.49 4.08 -0.4 0
2018-06-22 02:00:00 0 6962 19.96 19.81 20.08 2.18 -2 0
2018-06-22 03:00:00 0 6992 19.77 19.67 19.87 5.3 -3.2 0
2018-06-22 04:00:00 0 6962 19.53 19.38 19.68 15.46 0
2018-06-22 05:00:00 0 6972 18.94 18.75 19.3 4.12 0
2018-06-22 06:00:00 0 6952 18.89 18.76 19.14 8.65 -7.3 0
2018-06-22 07:00:00 0 6992 20.04 19.31 20.93 21.76 0
2018-06-22 08:00:00 0 7254 22.64 21.38 23.92 20.3 1.4 0
2018-06-22 09:00:00 0.4 7196 21.42 20.14 22.02 41.73 8.2 0